createdAt,value
2018-08-16T17:44:30.251Z,28.60
2018-08-16T17:46:57.917Z,28.30
2018-08-16T17:49:25.650Z,28.20
2018-08-16T17:51:53.362Z,28.10
2018-08-16T17:54:21.060Z,28.10
2018-08-16T17:56:48.958Z,27.90
2018-08-16T17:59:16.647Z,27.80
2018-08-16T18:01:44.263Z,27.60
2018-08-16T18:04:11.918Z,27.50
2018-08-16T18:06:39.619Z,27.30
2018-08-16T18:09:07.704Z,27.20
2018-08-16T18:11:35.348Z,27.10
2018-08-16T18:14:03.112Z,26.90
2018-08-16T18:16:30.759Z,26.80
2018-08-16T18:18:58.410Z,26.70
2018-08-16T18:21:26.055Z,26.60
2018-08-16T18:23:53.756Z,26.40
2018-08-16T18:26:21.374Z,26.30
2018-08-16T18:28:49.031Z,26.30
2018-08-16T18:31:16.779Z,26.10
2018-08-16T18:33:45.447Z,26.10
2018-08-16T18:36:13.203Z,26.00
2018-08-16T18:38:40.954Z,25.90
2018-08-16T18:41:08.816Z,25.80
2018-08-16T18:43:36.467Z,25.70
2018-08-16T18:46:04.323Z,25.60
2018-08-16T18:48:32.086Z,25.50
2018-08-16T18:51:00.099Z,25.50
2018-08-16T18:53:27.833Z,24.10
2018-08-16T18:55:55.481Z,25.30
2018-08-16T18:58:23.139Z,25.20
2018-08-16T19:00:50.778Z,25.10
2018-08-16T19:03:19.442Z,25.10
2018-08-16T19:05:48.016Z,25.00
2018-08-16T19:08:15.682Z,24.80
2018-08-16T19:10:43.378Z,24.80
2018-08-16T19:13:11.059Z,24.70
2018-08-16T19:15:38.779Z,24.70
2018-08-16T19:18:06.589Z,24.60
2018-08-16T19:20:34.559Z,24.50
2018-08-16T19:23:02.165Z,24.50
2018-08-16T19:25:29.915Z,24.40
2018-08-16T19:27:57.618Z,24.50
2018-08-16T19:30:25.248Z,24.40
2018-08-16T19:32:53.119Z,24.30
2018-08-16T19:35:20.815Z,24.20
2018-08-16T19:37:48.627Z,24.20
2018-08-16T19:40:16.925Z,24.20
2018-08-16T19:42:44.572Z,24.10
2018-08-16T19:45:12.478Z,24.00
2018-08-16T19:47:40.175Z,23.90
2018-08-16T19:50:09.088Z,23.90
2018-08-16T19:52:36.769Z,23.80
2018-08-16T19:55:05.545Z,23.80
2018-08-16T19:57:33.332Z,23.80
2018-08-16T20:00:01.761Z,23.70
2018-08-16T20:02:29.536Z,23.60
2018-08-16T20:04:57.163Z,23.60
2018-08-16T20:07:24.868Z,23.70
2018-08-16T20:09:52.623Z,23.40
2018-08-16T20:12:20.369Z,23.40
2018-08-16T20:14:48.003Z,23.40
2018-08-16T20:17:15.639Z,23.30
2018-08-16T20:19:43.270Z,23.20
2018-08-16T20:22:16.985Z,23.20
2018-08-16T20:24:44.830Z,23.10
2018-08-16T20:27:12.529Z,23.10
2018-08-16T20:29:40.688Z,23.10
2018-08-16T20:32:08.434Z,23.00
2018-08-16T20:34:36.038Z,23.00
2018-08-16T20:37:04.174Z,23.00
2018-08-16T20:39:31.802Z,22.90
2018-08-16T20:41:59.602Z,22.80
2018-08-16T20:44:27.402Z,22.80
2018-08-16T20:46:55.255Z,22.80
2018-08-16T20:49:22.895Z,22.70
2018-08-16T20:51:50.503Z,22.60
2018-08-16T20:54:18.450Z,22.60
2018-08-16T20:56:46.092Z,22.60
2018-08-16T20:59:13.840Z,22.60
2018-08-16T21:01:41.588Z,22.50
2018-08-16T21:04:09.215Z,22.50
2018-08-16T21:06:37.571Z,22.40
2018-08-16T21:09:06.471Z,22.40
2018-08-16T21:11:34.160Z,22.40
2018-08-16T21:14:01.835Z,22.40
2018-08-16T21:16:29.485Z,22.30
2018-08-16T21:19:04.022Z,22.20
2018-08-16T21:21:31.812Z,22.10
2018-08-16T21:23:59.531Z,22.00
2018-08-16T21:26:27.669Z,22.00
2018-08-16T21:28:55.954Z,21.90
2018-08-16T21:31:23.868Z,21.90
2018-08-16T21:33:51.801Z,22.00
2018-08-16T21:36:19.488Z,21.80
2018-08-16T21:38:47.178Z,21.80
2018-08-16T21:41:14.983Z,21.80
2018-08-16T21:43:42.714Z,21.70
2018-08-16T21:46:10.582Z,21.70
2018-08-16T21:48:38.276Z,21.70
2018-08-16T21:51:06.103Z,21.60
2018-08-16T21:53:34.140Z,21.60
2018-08-16T21:56:02.001Z,21.60
2018-08-16T21:58:30.351Z,21.60
2018-08-16T22:01:03.982Z,21.50
2018-08-16T22:03:31.719Z,21.50
2018-08-16T22:06:04.312Z,21.40
2018-08-16T22:08:43.123Z,21.40
2018-08-16T22:11:11.092Z,21.40
2018-08-16T22:13:39.027Z,21.40
2018-08-16T22:16:06.991Z,21.30
2018-08-16T22:18:34.726Z,21.30
2018-08-16T22:21:02.444Z,21.30
2018-08-16T22:23:30.083Z,21.30
2018-08-16T22:25:57.897Z,21.30
2018-08-16T22:28:25.646Z,21.30
2018-08-16T22:30:53.327Z,21.30
2018-08-16T22:33:20.949Z,21.10
2018-08-16T22:35:48.668Z,20.90
2018-08-16T22:38:16.275Z,20.80
2018-08-16T22:40:43.887Z,20.80
2018-08-16T22:43:11.568Z,20.90
2018-08-16T22:45:39.203Z,20.90
2018-08-16T22:48:06.950Z,21.10
2018-08-16T22:50:34.626Z,21.10
2018-08-16T22:53:02.300Z,21.10
2018-08-16T22:55:29.942Z,21.20
2018-08-16T22:57:57.554Z,21.30
2018-08-16T23:00:25.170Z,21.40
2018-08-16T23:02:52.789Z,21.50
2018-08-16T23:05:20.417Z,21.60
2018-08-16T23:07:48.123Z,21.60
2018-08-16T23:10:15.895Z,21.70
2018-08-16T23:12:43.563Z,21.60
2018-08-16T23:15:11.302Z,21.50
2018-08-16T23:17:38.914Z,21.40
2018-08-16T23:20:07.227Z,21.30
2018-08-16T23:22:34.918Z,21.20
2018-08-16T23:25:02.654Z,21.10
2018-08-16T23:27:30.307Z,20.90
2018-08-16T23:29:58.015Z,20.80
2018-08-16T23:32:25.718Z,20.70
2018-08-16T23:34:53.511Z,20.60
2018-08-16T23:37:21.170Z,20.60
2018-08-16T23:39:48.878Z,20.50
2018-08-16T23:42:16.696Z,20.40
2018-08-16T23:44:44.515Z,20.40
2018-08-16T23:47:12.158Z,20.50
2018-08-16T23:49:39.853Z,20.70
2018-08-16T23:52:07.558Z,20.80
2018-08-16T23:54:35.244Z,20.90
2018-08-16T23:57:02.950Z,21.00
2018-08-16T23:59:30.585Z,21.10
